sensor_id;sensor_type;location;lat;lon;timestamp;pressure;altitude;pressure_sealevel;temperature;humidity
62059;BME280;48017;51.064;7.014;2022-07-29T00:02:23;100789.22;;;20.30;47.16
62059;BME280;48017;51.064;7.014;2022-07-29T00:04:49;100785.50;;;20.31;47.12
62059;BME280;48017;51.064;7.014;2022-07-29T00:07:14;100784.94;;;20.51;47.25
62059;BME280;48017;51.064;7.014;2022-07-29T00:09:39;100786.16;;;20.48;47.33
62059;BME280;48017;51.064;7.014;2022-07-29T00:12:05;100780.56;;;20.50;47.72
62059;BME280;48017;51.064;7.014;2022-07-29T00:14:30;100780.91;;;20.61;47.71
62059;BME280;48017;51.064;7.014;2022-07-29T00:16:56;100778.28;;;20.68;47.01
62059;BME280;48017;51.064;7.014;2022-07-29T00:19:21;100775.59;;;20.68;47.03
62059;BME280;48017;51.064;7.014;2022-07-29T00:21:47;100778.16;;;20.55;47.50
62059;BME280;48017;51.064;7.014;2022-07-29T00:24:12;100765.72;;;20.54;47.48
62059;BME280;48017;51.064;7.014;2022-07-29T00:26:38;100764.31;;;20.58;47.66
62059;BME280;48017;51.064;7.014;2022-07-29T00:29:03;100763.91;;;20.61;47.17
62059;BME280;48017;51.064;7.014;2022-07-29T00:31:29;100763.91;;;20.61;47.28
62059;BME280;48017;51.064;7.014;2022-07-29T00:33:55;100757.25;;;20.57;47.43
62059;BME280;48017;51.064;7.014;2022-07-29T00:36:21;100759.03;;;20.50;47.47
62059;BME280;48017;51.064;7.014;2022-07-29T00:38:50;100754.88;;;20.47;47.82
62059;BME280;48017;51.064;7.014;2022-07-29T00:41:16;100740.56;;;20.47;47.99
62059;BME280;48017;51.064;7.014;2022-07-29T00:43:42;100748.25;;;20.50;47.91
62059;BME280;48017;51.064;7.014;2022-07-29T00:46:08;100743.16;;;20.55;47.54
62059;BME280;48017;51.064;7.014;2022-07-29T00:48:33;100737.81;;;20.61;47.07
62059;BME280;48017;51.064;7.014;2022-07-29T00:51:01;100738.44;;;20.63;46.87
62059;BME280;48017;51.064;7.014;2022-07-29T00:53:27;100739.44;;;20.56;47.54
62059;BME280;48017;51.064;7.014;2022-07-29T00:55:54;100736.94;;;20.54;47.49
62059;BME280;48017;51.064;7.014;2022-07-29T00:58:20;100737.72;;;20.33;47.59
62059;BME280;48017;51.064;7.014;2022-07-29T01:00:46;100734.88;;;20.41;47.48
62059;BME280;48017;51.064;7.014;2022-07-29T01:03:11;100730.50;;;20.55;47.65
62059;BME280;48017;51.064;7.014;2022-07-29T01:05:37;100724.50;;;20.38;48.19
62059;BME280;48017;51.064;7.014;2022-07-29T01:08:05;100721.81;;;20.38;48.29
62059;BME280;48017;51.064;7.014;2022-07-29T01:10:30;100719.09;;;20.38;48.32
62059;BME280;48017;51.064;7.014;2022-07-29T01:12:57;100720.59;;;20.41;48.08
62059;BME280;48017;51.064;7.014;2022-07-29T01:15:24;100725.00;;;20.27;48.26
62059;BME280;48017;51.064;7.014;2022-07-29T01:26:44;100714.94;;;20.00;49.38
62059;BME280;48017;51.064;7.014;2022-07-29T01:29:29;100715.22;;;20.05;49.26
62059;BME280;48017;51.064;7.014;2022-07-29T01:32:10;100710.47;;;19.92;49.93
62059;BME280;48017;51.064;7.014;2022-07-29T01:37:41;100699.94;;;19.76;50.49
62059;BME280;48017;51.064;7.014;2022-07-29T01:40:16;100696.59;;;19.89;51.16
62059;BME280;48017;51.064;7.014;2022-07-29T01:42:50;100704.56;;;19.82;51.47
62059;BME280;48017;51.064;7.014;2022-07-29T01:45:34;100696.78;;;19.87;52.39
62059;BME280;48017;51.064;7.014;2022-07-29T01:48:52;100686.06;;;19.72;52.32
62059;BME280;48017;51.064;7.014;2022-07-29T01:50:58;100687.97;;;19.78;52.14
62059;BME280;48017;51.064;7.014;2022-07-29T01:53:31;100690.28;;;19.81;52.19
62059;BME280;48017;51.064;7.014;2022-07-29T01:56:00;100681.69;;;19.42;53.46
62059;BME280;48017;51.064;7.014;2022-07-29T01:58:28;100681.41;;;19.66;52.64
62059;BME280;48017;51.064;7.014;2022-07-29T02:00:57;100681.84;;;19.55;52.59
62059;BME280;48017;51.064;7.014;2022-07-29T02:03:24;100680.47;;;19.44;51.44
62059;BME280;48017;51.064;7.014;2022-07-29T02:05:52;100677.34;;;19.55;52.71
62059;BME280;48017;51.064;7.014;2022-07-29T02:08:18;100686.50;;;19.76;52.31
62059;BME280;48017;51.064;7.014;2022-07-29T02:10:47;100683.22;;;19.95;51.61
62059;BME280;48017;51.064;7.014;2022-07-29T02:13:13;100678.19;;;19.92;52.09
62059;BME280;48017;51.064;7.014;2022-07-29T02:15:41;100682.75;;;19.92;51.83
62059;BME280;48017;51.064;7.014;2022-07-29T02:18:11;100682.75;;;19.92;51.97
62059;BME280;48017;51.064;7.014;2022-07-29T02:20:39;100687.59;;;19.81;52.34
62059;BME280;48017;51.064;7.014;2022-07-29T02:23:09;100692.13;;;19.81;52.69
62059;BME280;48017;51.064;7.014;2022-07-29T02:25:35;100694.66;;;19.82;52.71
62059;BME280;48017;51.064;7.014;2022-07-29T02:28:02;100684.66;;;19.76;53.14
62059;BME280;48017;51.064;7.014;2022-07-29T02:30:29;100685.91;;;19.80;53.11
62059;BME280;48017;51.064;7.014;2022-07-29T02:32:56;100678.69;;;19.81;53.12
62059;BME280;48017;51.064;7.014;2022-07-29T02:35:21;100680.94;;;19.77;53.66
62059;BME280;48017;51.064;7.014;2022-07-29T02:37:48;100676.81;;;19.81;53.67
62059;BME280;48017;51.064;7.014;2022-07-29T02:40:34;100682.25;;;19.67;54.43
62059;BME280;48017;51.064;7.014;2022-07-29T02:43:04;100683.91;;;19.68;54.46
62059;BME280;48017;51.064;7.014;2022-07-29T02:45:31;100687.81;;;19.65;54.48
62059;BME280;48017;51.064;7.014;2022-07-29T02:47:59;100688.53;;;19.59;54.30
62059;BME280;48017;51.064;7.014;2022-07-29T02:50:32;100687.22;;;19.55;54.38
62059;BME280;48017;51.064;7.014;2022-07-29T02:53:14;100682.97;;;19.61;54.21
62059;BME280;48017;51.064;7.014;2022-07-29T02:55:49;100682.59;;;19.49;54.10
62059;BME280;48017;51.064;7.014;2022-07-29T02:58:32;100680.28;;;19.31;54.92
62059;BME280;48017;51.064;7.014;2022-07-29T03:01:03;100686.38;;;19.40;55.00
62059;BME280;48017;51.064;7.014;2022-07-29T03:03:34;100700.19;;;19.37;54.55
62059;BME280;48017;51.064;7.014;2022-07-29T03:06:01;100705.50;;;19.45;54.38
62059;BME280;48017;51.064;7.014;2022-07-29T03:08:28;100718.94;;;19.45;54.39
62059;BME280;48017;51.064;7.014;2022-07-29T03:10:54;100722.34;;;19.39;54.33
62059;BME280;48017;51.064;7.014;2022-07-29T03:13:21;100717.72;;;19.33;54.20
62059;BME280;48017;51.064;7.014;2022-07-29T03:15:47;100724.78;;;19.34;54.17
62059;BME280;48017;51.064;7.014;2022-07-29T03:18:13;100719.09;;;19.28;54.18
62059;BME280;48017;51.064;7.014;2022-07-29T03:20:39;100717.44;;;19.27;54.12
62059;BME280;48017;51.064;7.014;2022-07-29T03:23:05;100728.81;;;19.29;54.17
62059;BME280;48017;51.064;7.014;2022-07-29T03:25:31;100736.81;;;19.38;53.78
62059;BME280;48017;51.064;7.014;2022-07-29T03:27:56;100734.50;;;19.35;53.82
62059;BME280;48017;51.064;7.014;2022-07-29T03:30:22;100749.03;;;19.40;53.77
62059;BME280;48017;51.064;7.014;2022-07-29T03:32:49;100740.59;;;19.28;53.89
62059;BME280;48017;51.064;7.014;2022-07-29T03:35:15;100736.91;;;19.29;53.84
62059;BME280;48017;51.064;7.014;2022-07-29T03:37:42;100737.28;;;19.26;53.96
62059;BME280;48017;51.064;7.014;2022-07-29T03:40:10;100730.22;;;19.25;54.02
62059;BME280;48017;51.064;7.014;2022-07-29T03:42:38;100737.91;;;19.28;54.25
62059;BME280;48017;51.064;7.014;2022-07-29T03:45:07;100737.38;;;19.33;53.89
62059;BME280;48017;51.064;7.014;2022-07-29T03:47:35;100738.66;;;19.37;53.27
62059;BME280;48017;51.064;7.014;2022-07-29T03:50:07;100734.03;;;19.31;53.14
62059;BME280;48017;51.064;7.014;2022-07-29T03:52:34;100740.16;;;19.40;52.70
62059;BME280;48017;51.064;7.014;2022-07-29T03:55:01;100740.00;;;19.41;52.17
62059;BME280;48017;51.064;7.014;2022-07-29T03:57:27;100743.50;;;19.42;51.66
62059;BME280;48017;51.064;7.014;2022-07-29T03:59:54;100732.34;;;19.30;51.81
62059;BME280;48017;51.064;7.014;2022-07-29T04:02:20;100736.16;;;19.36;51.48
62059;BME280;48017;51.064;7.014;2022-07-29T04:04:46;100736.31;;;19.19;51.97
62059;BME280;48017;51.064;7.014;2022-07-29T04:07:12;100735.84;;;19.16;51.97
62059;BME280;48017;51.064;7.014;2022-07-29T04:09:38;100735.88;;;19.31;51.68
62059;BME280;48017;51.064;7.014;2022-07-29T04:12:03;100745.63;;;19.32;51.57
62059;BME280;48017;51.064;7.014;2022-07-29T04:14:30;100746.28;;;19.34;51.19
62059;BME280;48017;51.064;7.014;2022-07-29T04:16:55;100743.09;;;19.30;51.66
62059;BME280;48017;51.064;7.014;2022-07-29T04:19:21;100750.91;;;19.25;51.63
62059;BME280;48017;51.064;7.014;2022-07-29T04:21:46;100754.22;;;19.27;51.91
62059;BME280;48017;51.064;7.014;2022-07-29T04:24:12;100743.72;;;19.17;51.55
62059;BME280;48017;51.064;7.014;2022-07-29T04:26:37;100745.41;;;19.18;51.54
62059;BME280;48017;51.064;7.014;2022-07-29T04:29:03;100737.91;;;19.14;51.94
62059;BME280;48017;51.064;7.014;2022-07-29T04:31:28;100736.69;;;19.16;51.76
62059;BME280;48017;51.064;7.014;2022-07-29T04:33:54;100736.41;;;19.11;52.11
62059;BME280;48017;51.064;7.014;2022-07-29T04:36:19;100740.09;;;19.10;51.97
62059;BME280;48017;51.064;7.014;2022-07-29T04:38:44;100733.81;;;19.18;51.55
62059;BME280;48017;51.064;7.014;2022-07-29T04:41:10;100732.16;;;19.17;51.71
62059;BME280;48017;51.064;7.014;2022-07-29T04:43:35;100739.69;;;19.21;51.70
62059;BME280;48017;51.064;7.014;2022-07-29T04:46:06;100730.22;;;19.11;51.86
62059;BME280;48017;51.064;7.014;2022-07-29T04:48:31;100737.19;;;18.97;51.89
62059;BME280;48017;51.064;7.014;2022-07-29T04:50:57;100735.84;;;19.01;52.16
62059;BME280;48017;51.064;7.014;2022-07-29T04:53:22;100735.91;;;18.93;52.62
62059;BME280;48017;51.064;7.014;2022-07-29T04:55:48;100730.75;;;19.06;52.07
62059;BME280;48017;51.064;7.014;2022-07-29T04:58:13;100734.44;;;19.05;51.98
62059;BME280;48017;51.064;7.014;2022-07-29T05:00:39;100738.16;;;19.04;51.80
62059;BME280;48017;51.064;7.014;2022-07-29T05:03:04;100739.75;;;19.13;51.68
62059;BME280;48017;51.064;7.014;2022-07-29T05:05:30;100734.00;;;19.16;51.83
62059;BME280;48017;51.064;7.014;2022-07-29T05:07:55;100732.72;;;19.12;51.80
62059;BME280;48017;51.064;7.014;2022-07-29T05:10:21;100737.50;;;19.02;51.94
62059;BME280;48017;51.064;7.014;2022-07-29T05:12:47;100752.88;;;19.08;51.83
62059;BME280;48017;51.064;7.014;2022-07-29T05:15:12;100750.75;;;19.04;52.22
62059;BME280;48017;51.064;7.014;2022-07-29T05:17:38;100756.06;;;19.12;51.79
62059;BME280;48017;51.064;7.014;2022-07-29T05:20:05;100758.75;;;19.12;51.91
62059;BME280;48017;51.064;7.014;2022-07-29T05:22:30;100762.91;;;19.14;52.18
62059;BME280;48017;51.064;7.014;2022-07-29T05:24:56;100759.84;;;19.17;52.65
62059;BME280;48017;51.064;7.014;2022-07-29T05:27:21;100758.84;;;19.18;52.28
62059;BME280;48017;51.064;7.014;2022-07-29T05:29:46;100764.16;;;19.26;51.94
62059;BME280;48017;51.064;7.014;2022-07-29T05:32:12;100762.19;;;19.20;52.13
62059;BME280;48017;51.064;7.014;2022-07-29T05:34:38;100764.97;;;19.27;52.00
62059;BME280;48017;51.064;7.014;2022-07-29T05:37:04;100766.13;;;19.33;51.59
62059;BME280;48017;51.064;7.014;2022-07-29T05:39:29;100768.25;;;19.37;51.71
62059;BME280;48017;51.064;7.014;2022-07-29T05:41:54;100767.72;;;19.42;51.76
62059;BME280;48017;51.064;7.014;2022-07-29T05:44:20;100770.81;;;19.31;52.09
62059;BME280;48017;51.064;7.014;2022-07-29T05:46:45;100769.44;;;19.35;52.01
62059;BME280;48017;51.064;7.014;2022-07-29T05:49:11;100769.56;;;19.41;51.72
62059;BME280;48017;51.064;7.014;2022-07-29T05:51:37;100777.81;;;19.54;51.21
62059;BME280;48017;51.064;7.014;2022-07-29T05:54:02;100774.91;;;19.64;51.37
62059;BME280;48017;51.064;7.014;2022-07-29T05:56:27;100780.47;;;19.77;50.97
62059;BME280;48017;51.064;7.014;2022-07-29T05:58:53;100790.38;;;19.77;51.19
62059;BME280;48017;51.064;7.014;2022-07-29T06:01:19;100786.69;;;19.93;50.77
62059;BME280;48017;51.064;7.014;2022-07-29T06:03:45;100798.06;;;19.80;50.95
62059;BME280;48017;51.064;7.014;2022-07-29T06:06:10;100807.66;;;19.82;50.81
62059;BME280;48017;51.064;7.014;2022-07-29T06:08:37;100813.59;;;19.93;50.92
62059;BME280;48017;51.064;7.014;2022-07-29T06:11:04;100818.41;;;19.97;50.54
62059;BME280;48017;51.064;7.014;2022-07-29T06:13:29;100808.09;;;20.01;50.45
62059;BME280;48017;51.064;7.014;2022-07-29T06:15:55;100808.38;;;20.06;50.50
62059;BME280;48017;51.064;7.014;2022-07-29T06:18:21;100814.16;;;20.03;50.12
62059;BME280;48017;51.064;7.014;2022-07-29T06:20:49;100815.44;;;19.77;51.56
62059;BME280;48017;51.064;7.014;2022-07-29T06:23:15;100818.31;;;19.91;50.32
62059;BME280;48017;51.064;7.014;2022-07-29T06:25:40;100820.44;;;20.10;50.07
62059;BME280;48017;51.064;7.014;2022-07-29T06:28:05;100826.66;;;20.25;50.35
62059;BME280;48017;51.064;7.014;2022-07-29T06:30:31;100827.31;;;20.27;50.39
62059;BME280;48017;51.064;7.014;2022-07-29T06:32:57;100825.72;;;20.18;50.09
62059;BME280;48017;51.064;7.014;2022-07-29T06:35:22;100830.66;;;20.14;50.38
62059;BME280;48017;51.064;7.014;2022-07-29T06:37:47;100825.63;;;20.11;50.73
62059;BME280;48017;51.064;7.014;2022-07-29T06:40:14;100830.19;;;19.96;50.53
62059;BME280;48017;51.064;7.014;2022-07-29T06:42:58;100828.06;;;20.06;50.33
62059;BME280;48017;51.064;7.014;2022-07-29T06:45:23;100835.38;;;20.12;50.01
62059;BME280;48017;51.064;7.014;2022-07-29T06:47:49;100838.53;;;19.87;51.89
62059;BME280;48017;51.064;7.014;2022-07-29T06:50:15;100844.09;;;19.85;51.06
62059;BME280;48017;51.064;7.014;2022-07-29T06:52:40;100840.69;;;20.06;50.76
62059;BME280;48017;51.064;7.014;2022-07-29T06:55:06;100842.34;;;20.07;50.61
62059;BME280;48017;51.064;7.014;2022-07-29T06:57:32;100848.75;;;20.06;50.43
62059;BME280;48017;51.064;7.014;2022-07-29T06:59:58;100847.34;;;20.10;50.03
62059;BME280;48017;51.064;7.014;2022-07-29T07:02:23;100837.97;;;20.21;49.30
62059;BME280;48017;51.064;7.014;2022-07-29T07:04:48;100840.56;;;20.29;49.35
62059;BME280;48017;51.064;7.014;2022-07-29T07:07:14;100835.56;;;20.26;49.28
62059;BME280;48017;51.064;7.014;2022-07-29T07:09:39;100834.09;;;20.23;49.44
62059;BME280;48017;51.064;7.014;2022-07-29T07:12:05;100828.53;;;20.25;50.45
62059;BME280;48017;51.064;7.014;2022-07-29T07:14:31;100836.13;;;20.21;50.74
62059;BME280;48017;51.064;7.014;2022-07-29T07:16:56;100834.09;;;20.23;51.02
62059;BME280;48017;51.064;7.014;2022-07-29T07:19:22;100835.09;;;20.22;51.03
62059;BME280;48017;51.064;7.014;2022-07-29T07:21:47;100828.53;;;20.25;51.42
62059;BME280;48017;51.064;7.014;2022-07-29T07:24:12;100834.53;;;20.27;51.84
62059;BME280;48017;51.064;7.014;2022-07-29T07:26:38;100827.69;;;20.24;51.81
62059;BME280;48017;51.064;7.014;2022-07-29T07:29:05;100832.13;;;20.17;52.57
62059;BME280;48017;51.064;7.014;2022-07-29T07:31:30;100830.66;;;20.14;53.02
62059;BME280;48017;51.064;7.014;2022-07-29T07:33:56;100832.41;;;20.07;53.98
62059;BME280;48017;51.064;7.014;2022-07-29T07:36:22;100832.88;;;19.96;55.52
62059;BME280;48017;51.064;7.014;2022-07-29T07:38:47;100834.56;;;19.82;57.72
62059;BME280;48017;51.064;7.014;2022-07-29T07:41:13;100834.75;;;19.96;58.65
62059;BME280;48017;51.064;7.014;2022-07-29T07:43:38;100839.00;;;20.05;59.13
62059;BME280;48017;51.064;7.014;2022-07-29T07:46:04;100844.03;;;20.08;57.46
62059;BME280;48017;51.064;7.014;2022-07-29T07:48:29;100846.16;;;20.27;56.46
62059;BME280;48017;51.064;7.014;2022-07-29T07:50:54;100844.66;;;20.10;57.67
62059;BME280;48017;51.064;7.014;2022-07-29T07:53:20;100842.91;;;20.17;58.06
62059;BME280;48017;51.064;7.014;2022-07-29T07:55:45;100824.44;;;20.14;58.23
62059;BME280;48017;51.064;7.014;2022-07-29T07:58:11;100828.88;;;20.22;57.44
62059;BME280;48017;51.064;7.014;2022-07-29T08:00:36;100819.13;;;20.21;58.42
62059;BME280;48017;51.064;7.014;2022-07-29T08:03:02;100826.84;;;20.24;59.05
62059;BME280;48017;51.064;7.014;2022-07-29T08:05:28;100826.84;;;20.24;59.72
62059;BME280;48017;51.064;7.014;2022-07-29T08:07:54;100831.03;;;20.26;60.67
62059;BME280;48017;51.064;7.014;2022-07-29T08:10:19;100836.78;;;20.08;61.35
62059;BME280;48017;51.064;7.014;2022-07-29T08:13:04;100836.13;;;20.06;60.58
62059;BME280;48017;51.064;7.014;2022-07-29T08:15:30;100837.63;;;20.09;61.16
62059;BME280;48017;51.064;7.014;2022-07-29T08:17:55;100825.38;;;20.06;60.79
62059;BME280;48017;51.064;7.014;2022-07-29T08:20:20;100830.94;;;20.05;59.88
62059;BME280;48017;51.064;7.014;2022-07-29T08:22:46;100827.75;;;20.01;60.57
62059;BME280;48017;51.064;7.014;2022-07-29T08:25:11;100834.66;;;20.04;60.76
62059;BME280;48017;51.064;7.014;2022-07-29T08:27:36;100834.44;;;19.91;62.27
62059;BME280;48017;51.064;7.014;2022-07-29T08:30:02;100837.91;;;19.84;63.42
62059;BME280;48017;51.064;7.014;2022-07-29T08:32:28;100828.63;;;19.87;64.88
62059;BME280;48017;51.064;7.014;2022-07-29T08:34:53;100831.31;;;19.87;64.49
62059;BME280;48017;51.064;7.014;2022-07-29T08:37:19;100833.34;;;20.00;63.88
62059;BME280;48017;51.064;7.014;2022-07-29T08:39:44;100837.22;;;20.12;65.12
62059;BME280;48017;51.064;7.014;2022-07-29T08:42:11;100834.53;;;20.12;63.89
62059;BME280;48017;51.064;7.014;2022-07-29T08:44:36;100821.38;;;20.17;63.40
62059;BME280;48017;51.064;7.014;2022-07-29T08:47:02;100815.53;;;20.13;63.72
62059;BME280;48017;51.064;7.014;2022-07-29T08:49:28;100817.28;;;20.06;63.84
62059;BME280;48017;51.064;7.014;2022-07-29T08:51:54;100819.88;;;20.00;65.12
62059;BME280;48017;51.064;7.014;2022-07-29T08:54:23;100826.19;;;20.07;65.66
62059;BME280;48017;51.064;7.014;2022-07-29T08:56:49;100823.59;;;19.99;66.18
62059;BME280;48017;51.064;7.014;2022-07-29T08:59:18;100820.34;;;19.89;66.05
62059;BME280;48017;51.064;7.014;2022-07-29T09:01:46;100820.53;;;19.87;66.30
62059;BME280;48017;51.064;7.014;2022-07-29T09:04:12;100819.88;;;20.00;65.94
62059;BME280;48017;51.064;7.014;2022-07-29T09:06:43;100817.94;;;19.94;66.77
62059;BME280;48017;51.064;7.014;2022-07-29T09:09:09;100812.38;;;19.95;67.68
62059;BME280;48017;51.064;7.014;2022-07-29T09:11:34;100813.84;;;19.98;67.28
62059;BME280;48017;51.064;7.014;2022-07-29T09:14:00;100813.84;;;19.98;67.45
62059;BME280;48017;51.064;7.014;2022-07-29T09:16:25;100818.31;;;20.05;68.50
62059;BME280;48017;51.064;7.014;2022-07-29T09:18:51;100822.31;;;19.95;67.94
62059;BME280;48017;51.064;7.014;2022-07-29T09:21:17;100826.13;;;20.15;67.85
62059;BME280;48017;51.064;7.014;2022-07-29T09:24:13;100827.97;;;20.14;67.55
62059;BME280;48017;51.064;7.014;2022-07-29T09:26:43;100830.34;;;20.39;66.04
62059;BME280;48017;51.064;7.014;2022-07-29T09:31:39;100824.78;;;20.55;64.20
62059;BME280;48017;51.064;7.014;2022-07-29T09:34:06;100821.41;;;20.68;63.49
62059;BME280;48017;51.064;7.014;2022-07-29T09:36:39;100833.09;;;20.75;62.85
62059;BME280;48017;51.064;7.014;2022-07-29T09:39:05;100829.56;;;20.75;63.25
62059;BME280;48017;51.064;7.014;2022-07-29T09:41:44;100829.50;;;20.89;62.45
62059;BME280;48017;51.064;7.014;2022-07-29T09:44:10;100826.56;;;20.84;62.71
62059;BME280;48017;51.064;7.014;2022-07-29T09:46:35;100831.00;;;20.56;63.10
62059;BME280;48017;51.064;7.014;2022-07-29T09:49:12;100826.09;;;20.45;63.79
62059;BME280;48017;51.064;7.014;2022-07-29T09:51:38;100825.88;;;20.61;63.19
62059;BME280;48017;51.064;7.014;2022-07-29T09:54:25;100826.19;;;20.73;62.82
62059;BME280;48017;51.064;7.014;2022-07-29T09:56:52;100826.28;;;21.00;61.60
62059;BME280;48017;51.064;7.014;2022-07-29T09:59:19;100822.56;;;21.02;61.69
62059;BME280;48017;51.064;7.014;2022-07-29T10:01:48;100815.63;;;21.14;61.32
62059;BME280;48017;51.064;7.014;2022-07-29T10:04:14;100818.38;;;21.20;60.94
62059;BME280;48017;51.064;7.014;2022-07-29T10:07:00;100820.00;;;21.15;62.01
62059;BME280;48017;51.064;7.014;2022-07-29T10:09:26;100827.72;;;20.96;62.00
62059;BME280;48017;51.064;7.014;2022-07-29T10:12:12;100835.22;;;21.01;62.28
62059;BME280;48017;51.064;7.014;2022-07-29T10:14:41;100836.53;;;20.69;64.24
62059;BME280;48017;51.064;7.014;2022-07-29T10:17:09;100837.66;;;20.60;63.78
62059;BME280;48017;51.064;7.014;2022-07-29T10:19:36;100843.59;;;20.70;63.86
62059;BME280;48017;51.064;7.014;2022-07-29T10:22:07;100835.59;;;20.98;62.88
62059;BME280;48017;51.064;7.014;2022-07-29T10:24:33;100833.66;;;20.92;62.39
62059;BME280;48017;51.064;7.014;2022-07-29T10:27:01;100829.25;;;20.84;63.23
62059;BME280;48017;51.064;7.014;2022-07-29T10:29:28;100835.63;;;20.83;64.65
62059;BME280;48017;51.064;7.014;2022-07-29T10:40:53;100841.00;;;20.62;66.08
62059;BME280;48017;51.064;7.014;2022-07-29T10:43:45;100838.13;;;20.63;65.64
62059;BME280;48017;51.064;7.014;2022-07-29T10:46:11;100831.88;;;20.63;65.16
62059;BME280;48017;51.064;7.014;2022-07-29T10:49:15;100837.94;;;20.65;65.27
62059;BME280;48017;51.064;7.014;2022-07-29T10:54:16;100840.41;;;20.81;64.81
62059;BME280;48017;51.064;7.014;2022-07-29T10:56:42;100834.47;;;21.07;63.75
62059;BME280;48017;51.064;7.014;2022-07-29T11:01:46;100830.44;;;21.24;62.21
62059;BME280;48017;51.064;7.014;2022-07-29T11:04:12;100829.31;;;21.34;61.02
62059;BME280;48017;51.064;7.014;2022-07-29T11:07:06;100834.38;;;21.43;60.52
62059;BME280;48017;51.064;7.014;2022-07-29T11:09:35;100844.69;;;21.61;58.56
62059;BME280;48017;51.064;7.014;2022-07-29T11:12:00;100838.56;;;21.74;58.64
62059;BME280;48017;51.064;7.014;2022-07-29T11:17:23;100835.50;;;22.11;57.52
62059;BME280;48017;51.064;7.014;2022-07-29T11:19:48;100828.53;;;22.37;56.93
62059;BME280;48017;51.064;7.014;2022-07-29T11:22:32;100824.25;;;22.56;55.84
62059;BME280;48017;51.064;7.014;2022-07-29T11:25:17;100830.78;;;22.81;55.06
62059;BME280;48017;51.064;7.014;2022-07-29T11:27:46;100839.97;;;22.87;54.22
62059;BME280;48017;51.064;7.014;2022-07-29T11:30:12;100837.50;;;22.92;53.81
62059;BME280;48017;51.064;7.014;2022-07-29T11:32:40;100842.34;;;23.30;52.55
62059;BME280;48017;51.064;7.014;2022-07-29T11:35:20;100838.56;;;23.57;51.94
62059;BME280;48017;51.064;7.014;2022-07-29T11:43:52;100829.41;;;23.38;50.82
62059;BME280;48017;51.064;7.014;2022-07-29T11:49:07;100828.16;;;23.94;49.71
62059;BME280;48017;51.064;7.014;2022-07-29T11:51:35;100838.19;;;23.67;50.30
62059;BME280;48017;51.064;7.014;2022-07-29T11:54:02;100826.53;;;23.73;50.16
62059;BME280;48017;51.064;7.014;2022-07-29T11:56:31;100826.09;;;23.76;49.18
62059;BME280;48017;51.064;7.014;2022-07-29T11:59:04;100823.53;;;24.07;48.05
62059;BME280;48017;51.064;7.014;2022-07-29T12:01:30;100820.97;;;24.32;47.76
62059;BME280;48017;51.064;7.014;2022-07-29T12:04:06;100824.00;;;24.56;47.36
62059;BME280;48017;51.064;7.014;2022-07-29T12:06:33;100830.50;;;24.86;46.69
62059;BME280;48017;51.064;7.014;2022-07-29T12:08:59;100828.16;;;24.90;46.00
62059;BME280;48017;51.064;7.014;2022-07-29T12:11:25;100836.56;;;24.82;44.86
62059;BME280;48017;51.064;7.014;2022-07-29T12:13:51;100831.69;;;24.59;45.34
62059;BME280;48017;51.064;7.014;2022-07-29T12:16:17;100834.66;;;24.82;44.68
62059;BME280;48017;51.064;7.014;2022-07-29T12:18:54;100829.56;;;24.67;45.27
62059;BME280;48017;51.064;7.014;2022-07-29T12:21:20;100830.22;;;24.63;45.42
62059;BME280;48017;51.064;7.014;2022-07-29T12:23:52;100835.50;;;24.83;45.14
62059;BME280;48017;51.064;7.014;2022-07-29T12:26:19;100829.25;;;24.82;45.53
62059;BME280;48017;51.064;7.014;2022-07-29T12:28:44;100838.75;;;24.66;45.34
62059;BME280;48017;51.064;7.014;2022-07-29T12:31:14;100836.56;;;24.30;45.48
62059;BME280;48017;51.064;7.014;2022-07-29T12:33:40;100836.72;;;24.49;45.77
62059;BME280;48017;51.064;7.014;2022-07-29T12:36:06;100826.53;;;24.82;44.61
62059;BME280;48017;51.064;7.014;2022-07-29T12:38:33;100828.41;;;25.20;43.92
62059;BME280;48017;51.064;7.014;2022-07-29T12:40:59;100834.56;;;25.34;43.52
62059;BME280;48017;51.064;7.014;2022-07-29T12:43:25;100820.03;;;25.21;43.62
62059;BME280;48017;51.064;7.014;2022-07-29T12:45:52;100816.56;;;25.39;44.00
62059;BME280;48017;51.064;7.014;2022-07-29T12:48:33;100816.13;;;25.42;43.56
62059;BME280;48017;51.064;7.014;2022-07-29T12:51:03;100821.84;;;25.34;43.70
62059;BME280;48017;51.064;7.014;2022-07-29T12:53:29;100823.03;;;25.63;43.84
62059;BME280;48017;51.064;7.014;2022-07-29T12:55:55;100817.06;;;25.79;42.42
62059;BME280;48017;51.064;7.014;2022-07-29T13:01:06;100820.63;;;25.98;42.27
62059;BME280;48017;51.064;7.014;2022-07-29T13:09:12;100809.44;;;25.88;43.28
62059;BME280;48017;51.064;7.014;2022-07-29T13:11:49;100811.94;;;25.90;43.09
62059;BME280;48017;51.064;7.014;2022-07-29T13:14:36;100806.88;;;25.50;44.18
62059;BME280;48017;51.064;7.014;2022-07-29T13:17:14;100807.47;;;25.77;43.98
62059;BME280;48017;51.064;7.014;2022-07-29T13:20:07;100816.78;;;26.06;43.17
62059;BME280;48017;51.064;7.014;2022-07-29T13:22:40;100814.56;;;26.33;41.30
62059;BME280;48017;51.064;7.014;2022-07-29T13:25:08;100809.59;;;26.48;40.83
62059;BME280;48017;51.064;7.014;2022-07-29T13:27:36;100808.06;;;26.52;40.68
62059;BME280;48017;51.064;7.014;2022-07-29T13:30:04;100803.88;;;26.38;40.03
62059;BME280;48017;51.064;7.014;2022-07-29T13:32:30;100811.00;;;26.32;39.98
62059;BME280;48017;51.064;7.014;2022-07-29T13:34:58;100801.34;;;26.36;40.15
62059;BME280;48017;51.064;7.014;2022-07-29T13:37:24;100805.63;;;26.62;39.39
62059;BME280;48017;51.064;7.014;2022-07-29T13:39:50;100815.81;;;26.37;39.74
62059;BME280;48017;51.064;7.014;2022-07-29T13:42:17;100808.66;;;26.54;40.03
62059;BME280;48017;51.064;7.014;2022-07-29T13:44:42;100804.22;;;26.23;39.40